Darstellungsparameter: Aktuell verwendete Einstellungen:
Skalierung der Graphiken ... ?
xyx+y,   Skalierungsfaktor:      Skalierung: Modus: x, Faktor: 1
Darstellungszeitraum ... ?
Vom - - bis: - -   Zeitraum: 31.12.2020 - 01.01.2021
Min/Max/Avg-Anzeige ... ?
Zeige MMA aktuell
Zeige MMA Monat
Zeige MMA alles
Zeige --A aktuell
Zeige --A Monat
Zeige --A alles
Keine MMA-Anzeige
MMA:
Minimum Maximum Average (ber die Originaldaten)
MMA-Basis: 14.04.2020 - 16.05.2020
Quicknavigation für Darstellung... ?
Tage:      1T, 2T, 3T, 5T -1T -2T -3T -5T +1T +2T +3T +5T
Wochen: 1W, 2W, 3W -1W -2W -3W +1W +2W +3W
Monate: 1M, 3M, 6M -1M -3M -6M +1M +3M +6M
Jahre:    1J, 3J, 5J, 10J -1J -3J -5J -10J +1J +3J +5J +10J
Nutze für die Darstellung ... ?
Originaldaten oder Mittelwerte auf ...
Stundenbasis Tagesbasis Wochenbasis
Monatsbasis Jahresbasis      Datenbasis: Original-Daten
Darstellen als:
Statistik (Auto) Statistik J:M      Darstellung:
Zur Graphik,    zurück zur Übersicht aller Sensoren.
 
Tabellarische Datenbersicht: ?
 
Sensor: Nr:Datum:Temp:Abs-Feuchte:Windchill:Wind:
Aussen-T/F 1 31-12-2020 00:00:00 4.2 C 5.73 g/m*3 4.2 C 0 km/h
2 31-12-2020 00:05:00 4.2 C 5.73 g/m*3 4.2 C 0 km/h
3 31-12-2020 00:10:00 4.1 C 5.7 g/m*3 4.1 C 1.6 km/h
4 31-12-2020 00:15:00 4.1 C 5.7 g/m*3 4.1 C 0 km/h
5 31-12-2020 00:20:00 4 C 5.66 g/m*3 4 C 4.8 km/h
6 31-12-2020 00:25:00 3.9 C 5.62 g/m*3 3.9 C 4.8 km/h
7 31-12-2020 00:30:00 4 C 5.66 g/m*3 4 C 3.2 km/h
8 31-12-2020 00:35:00 4 C 5.66 g/m*3 4 C 1.6 km/h
9 31-12-2020 00:40:00 4 C 5.66 g/m*3 4 C 1.6 km/h
10 31-12-2020 00:45:00 4 C 5.66 g/m*3 4 C 0 km/h
11 31-12-2020 00:50:00 4 C 5.66 g/m*3 4 C 0 km/h
12 31-12-2020 00:55:00 3.9 C 5.68 g/m*3 3.9 C 0 km/h
13 31-12-2020 01:00:00 3.9 C 5.68 g/m*3 3.9 C 0 km/h
14 31-12-2020 01:05:00 3.8 C 5.65 g/m*3 3.8 C 0 km/h
15 31-12-2020 01:10:00 3.8 C 5.65 g/m*3 3.8 C 0 km/h
16 31-12-2020 01:15:00 3.7 C 5.61 g/m*3 3.7 C 0 km/h
17 31-12-2020 01:20:00 3.6 C 5.57 g/m*3 3.6 C 0 km/h
18 31-12-2020 01:25:00 3.5 C 5.53 g/m*3 3.5 C 0 km/h
19 31-12-2020 01:30:00 3.4 C 5.5 g/m*3 3.4 C 1.6 km/h
20 31-12-2020 01:35:00 3.3 C 5.46 g/m*3 3.3 C 0 km/h
21 31-12-2020 01:40:00 3.1 C 5.39 g/m*3 3.1 C 0 km/h
22 31-12-2020 01:45:00 3.1 C 5.45 g/m*3 3.1 C 0 km/h
23 31-12-2020 01:50:00 3 C 5.41 g/m*3 3 C 3.2 km/h
24 31-12-2020 01:55:00 3 C 5.47 g/m*3 3 C 3.2 km/h
25 31-12-2020 02:00:00 3.1 C 5.51 g/m*3 3.1 C 3.2 km/h
Sensor: Nr:Datum:Temp:Abs-Feuchte:Windchill:Wind:
Aussen-T/F 26 31-12-2020 02:05:00 3.1 C 5.51 g/m*3 3.1 C 3.2 km/h
27 31-12-2020 02:10:00 3.2 C 5.54 g/m*3 3.2 C 4.8 km/h
28 31-12-2020 02:15:00 3.2 C 5.54 g/m*3 3.2 C 0 km/h
29 31-12-2020 02:20:00 3.2 C 5.54 g/m*3 3.2 C 0 km/h
30 31-12-2020 02:25:00 3.3 C 5.58 g/m*3 3.3 C 1.6 km/h
31 31-12-2020 02:30:00 3.3 C 5.58 g/m*3 3.3 C 0 km/h
32 31-12-2020 02:35:00 3.3 C 5.52 g/m*3 3.3 C 0 km/h
33 31-12-2020 02:40:00 3.2 C 5.48 g/m*3 3.2 C 0 km/h
34 31-12-2020 02:45:00 3.2 C 5.48 g/m*3 3.2 C 0 km/h
35 31-12-2020 02:50:00 3.1 C 5.45 g/m*3 3.1 C 1.6 km/h
36 31-12-2020 02:55:00 2.9 C 5.37 g/m*3 2.9 C 3.2 km/h
37 31-12-2020 03:00:00 2.9 C 5.37 g/m*3 2.9 C 1.6 km/h
38 31-12-2020 03:05:00 2.9 C 5.37 g/m*3 2.9 C 3.2 km/h
39 31-12-2020 03:10:00 2.9 C 5.37 g/m*3 2.9 C 0 km/h
40 31-12-2020 03:15:00 2.9 C 5.43 g/m*3 2.9 C 0 km/h
41 31-12-2020 03:20:00 2.9 C 5.43 g/m*3 2.9 C 1.6 km/h
42 31-12-2020 03:25:00 2.8 C 5.4 g/m*3 2.8 C 0 km/h
43 31-12-2020 03:30:00 2.8 C 5.4 g/m*3 2.8 C 0 km/h
44 31-12-2020 03:35:00 2.8 C 5.4 g/m*3 2.8 C 1.6 km/h
45 31-12-2020 03:40:00 2.8 C 5.4 g/m*3 2.8 C 0 km/h
46 31-12-2020 03:45:00 2.8 C 5.4 g/m*3 2.8 C 0 km/h
47 31-12-2020 03:50:00 2.8 C 5.4 g/m*3 2.8 C 0 km/h
48 31-12-2020 03:55:00 2.8 C 5.4 g/m*3 2.8 C 0 km/h
49 31-12-2020 04:00:00 2.8 C 5.4 g/m*3 2.8 C 0 km/h
50 31-12-2020 04:05:00 2.8 C 5.4 g/m*3 2.8 C 0 km/h
Sensor: Nr:Datum:Temp:Abs-Feuchte:Windchill:Wind:
Aussen-T/F 51 31-12-2020 04:10:00 2.8 C 5.4 g/m*3 2.8 C 0 km/h
52 31-12-2020 04:15:00 2.8 C 5.4 g/m*3 2.8 C 0 km/h
53 31-12-2020 04:20:00 2.8 C 5.4 g/m*3 2.8 C 0 km/h
54 31-12-2020 04:25:00 2.8 C 5.4 g/m*3 2.8 C 0 km/h
55 31-12-2020 04:30:00 2.8 C 5.4 g/m*3 2.8 C 0 km/h
56 31-12-2020 04:35:00 2.8 C 5.4 g/m*3 2.8 C 0 km/h
57 31-12-2020 04:40:00 2.8 C 5.4 g/m*3 2.8 C 0 km/h
58 31-12-2020 04:45:00 2.7 C 5.36 g/m*3 2.7 C 0 km/h
59 31-12-2020 04:50:00 2.8 C 5.4 g/m*3 2.8 C 0 km/h
60 31-12-2020 04:55:00 2.7 C 5.36 g/m*3 2.7 C 0 km/h
61 31-12-2020 05:00:00 2.7 C 5.36 g/m*3 2.7 C 0 km/h
62 31-12-2020 05:05:00 2.7 C 5.36 g/m*3 2.7 C 0 km/h
63 31-12-2020 05:10:00 2.8 C 5.4 g/m*3 2.8 C 0 km/h
64 31-12-2020 05:15:00 2.8 C 5.4 g/m*3 2.8 C 0 km/h
65 31-12-2020 05:20:00 2.8 C 5.46 g/m*3 2.8 C 0 km/h
66 31-12-2020 05:25:00 2.8 C 5.46 g/m*3 2.8 C 0 km/h
67 31-12-2020 05:30:00 2.8 C 5.46 g/m*3 2.8 C 0 km/h
68 31-12-2020 05:35:00 2.8 C 5.46 g/m*3 2.8 C 0 km/h
69 31-12-2020 05:40:00 2.8 C 5.46 g/m*3 2.8 C 0 km/h
70 31-12-2020 05:45:00 2.9 C 5.49 g/m*3 2.9 C 0 km/h
71 31-12-2020 05:50:00 2.9 C 5.49 g/m*3 2.9 C 3.2 km/h
72 31-12-2020 05:55:00 2.9 C 5.49 g/m*3 2.9 C 0 km/h
73 31-12-2020 06:00:00 2.9 C 5.49 g/m*3 2.9 C 0 km/h
74 31-12-2020 06:05:00 2.9 C 5.49 g/m*3 2.9 C 0 km/h
75 31-12-2020 06:10:00 3 C 5.59 g/m*3 3 C 0 km/h
Sensor: Nr:Datum:Temp:Abs-Feuchte:Windchill:Wind:
Aussen-T/F 76 31-12-2020 06:15:00 3 C 5.59 g/m*3 3 C 0 km/h
77 31-12-2020 06:20:00 3 C 5.59 g/m*3 3 C 0 km/h
78 31-12-2020 06:25:00 3 C 5.59 g/m*3 3 C 0 km/h
79 31-12-2020 06:30:00 3 C 5.59 g/m*3 3 C 0 km/h
80 31-12-2020 06:35:00 3 C 5.59 g/m*3 3 C 0 km/h
81 31-12-2020 06:40:00 3 C 5.59 g/m*3 3 C 0 km/h
82 31-12-2020 06:45:00 2.9 C 5.55 g/m*3 2.9 C 0 km/h
83 31-12-2020 06:50:00 2.9 C 5.55 g/m*3 2.9 C 0 km/h
84 31-12-2020 06:55:00 2.9 C 5.55 g/m*3 2.9 C 0 km/h
85 31-12-2020 07:00:00 2.9 C 5.55 g/m*3 2.9 C 0 km/h
86 31-12-2020 07:05:00 2.9 C 5.55 g/m*3 2.9 C 0 km/h
87 31-12-2020 07:10:00 2.9 C 5.55 g/m*3 2.9 C 0 km/h
88 31-12-2020 07:15:00 2.9 C 5.55 g/m*3 2.9 C 0 km/h
89 31-12-2020 07:20:00 2.8 C 5.51 g/m*3 2.8 C 0 km/h
90 31-12-2020 07:25:00 2.8 C 5.51 g/m*3 2.8 C 0 km/h
91 31-12-2020 07:30:00 2.8 C 5.51 g/m*3 2.8 C 0 km/h
92 31-12-2020 07:35:00 2.7 C 5.48 g/m*3 2.7 C 3.2 km/h
93 31-12-2020 07:40:00 2.7 C 5.48 g/m*3 2.7 C 1.6 km/h
94 31-12-2020 07:45:00 2.7 C 5.48 g/m*3 2.7 C 3.2 km/h
95 31-12-2020 07:50:00 2.7 C 5.48 g/m*3 2.7 C 0 km/h
96 31-12-2020 07:55:00 2.7 C 5.48 g/m*3 2.7 C 4.8 km/h
97 31-12-2020 08:00:00 2.7 C 5.48 g/m*3 2.7 C 4.8 km/h
98 31-12-2020 08:05:00 2.7 C 5.48 g/m*3 2.7 C 3.2 km/h
99 31-12-2020 08:10:00 2.7 C 5.48 g/m*3 2.7 C 3.2 km/h
100 31-12-2020 08:15:00 2.7 C 5.48 g/m*3 2.7 C 0 km/h
Sensor: Nr:Datum:Temp:Abs-Feuchte:Windchill:Wind:
Aussen-T/F 101 31-12-2020 08:20:00 2.7 C 5.48 g/m*3 0.94 C 6.4 km/h
102 31-12-2020 08:25:00 2.7 C 5.48 g/m*3 2.7 C 0 km/h
103 31-12-2020 08:30:00 2.7 C 5.48 g/m*3 2.7 C 1.6 km/h
104 31-12-2020 08:35:00 2.7 C 5.48 g/m*3 2.7 C 4.8 km/h
105 31-12-2020 08:40:00 2.7 C 5.48 g/m*3 2.7 C 1.6 km/h
106 31-12-2020 08:45:00 2.7 C 5.48 g/m*3 2.7 C 0 km/h
107 31-12-2020 08:50:00 2.7 C 5.48 g/m*3 2.7 C 3.2 km/h
108 31-12-2020 08:55:00 2.6 C 5.44 g/m*3 2.6 C 1.6 km/h
109 31-12-2020 09:00:00 2.6 C 5.44 g/m*3 2.6 C 3.2 km/h
110 31-12-2020 09:05:00 2.6 C 5.44 g/m*3 2.6 C 1.6 km/h
111 31-12-2020 09:10:00 2.6 C 5.44 g/m*3 2.6 C 1.6 km/h
112 31-12-2020 09:15:00 2.6 C 5.44 g/m*3 2.6 C 0 km/h
113 31-12-2020 09:20:00 2.6 C 5.44 g/m*3 2.6 C 0 km/h
114 31-12-2020 09:25:00 2.7 C 5.48 g/m*3 2.7 C 3.2 km/h
115 31-12-2020 09:30:00 2.7 C 5.48 g/m*3 2.7 C 3.2 km/h
116 31-12-2020 09:35:00 2.7 C 5.48 g/m*3 2.7 C 0 km/h
117 31-12-2020 09:40:00 2.7 C 5.48 g/m*3 2.7 C 0 km/h
118 31-12-2020 09:45:00 2.8 C 5.57 g/m*3 2.8 C 0 km/h
119 31-12-2020 09:50:00 2.8 C 5.51 g/m*3 2.8 C 0 km/h
120 31-12-2020 09:55:00 2.8 C 5.51 g/m*3 2.8 C 0 km/h
121 31-12-2020 10:00:00 2.9 C 5.61 g/m*3 2.9 C 0 km/h
122 31-12-2020 10:05:00 2.9 C 5.61 g/m*3 2.9 C 0 km/h
123 31-12-2020 10:10:00 3 C 5.65 g/m*3 3 C 0 km/h
124 31-12-2020 10:15:00 3.1 C 5.69 g/m*3 3.1 C 3.2 km/h
125 31-12-2020 10:20:00 3.1 C 5.63 g/m*3 3.1 C 1.6 km/h
Sensor: Nr:Datum:Temp:Abs-Feuchte:Windchill:Wind:
Aussen-T/F 126 31-12-2020 10:25:00 3.2 C 5.66 g/m*3 3.2 C 0 km/h
127 31-12-2020 10:30:00 3.2 C 5.66 g/m*3 3.2 C 1.6 km/h
128 31-12-2020 10:35:00 3.3 C 5.7 g/m*3 3.3 C 1.6 km/h
129 31-12-2020 10:40:00 3.3 C 5.7 g/m*3 3.3 C 0 km/h
130 31-12-2020 10:45:00 3.3 C 5.7 g/m*3 3.3 C 0 km/h
131 31-12-2020 10:50:00 3.3 C 5.64 g/m*3 3.3 C 3.2 km/h
132 31-12-2020 10:55:00 3.4 C 5.68 g/m*3 3.4 C 0 km/h
133 31-12-2020 11:00:00 3.4 C 5.62 g/m*3 3.4 C 0 km/h
134 31-12-2020 11:05:00 3.6 C 5.76 g/m*3 3.6 C 0 km/h
135 31-12-2020 11:10:00 3.7 C 5.8 g/m*3 3.7 C 4.8 km/h
136 31-12-2020 11:15:00 3.8 C 5.77 g/m*3 3.8 C 4.8 km/h
137 31-12-2020 11:20:00 3.8 C 5.71 g/m*3 3.8 C 4.8 km/h
138 31-12-2020 11:25:00 3.8 C 5.71 g/m*3 2.21 C 6.4 km/h
139 31-12-2020 11:30:00 3.8 C 5.71 g/m*3 2.21 C 6.4 km/h
140 31-12-2020 11:35:00 3.8 C 5.71 g/m*3 3.8 C 1.6 km/h
141 31-12-2020 11:40:00 3.8 C 5.71 g/m*3 2.21 C 6.4 km/h
142 31-12-2020 11:45:00 3.8 C 5.71 g/m*3 3.8 C 3.2 km/h
143 31-12-2020 11:50:00 3.9 C 5.75 g/m*3 3.9 C 0 km/h
144 31-12-2020 11:55:00 3.9 C 5.75 g/m*3 3.9 C 4.8 km/h
145 31-12-2020 12:00:00 3.9 C 5.68 g/m*3 3.9 C 1.6 km/h
146 31-12-2020 12:05:00 3.9 C 5.75 g/m*3 3.9 C 1.6 km/h
147 31-12-2020 12:10:00 4.1 C 5.82 g/m*3 4.1 C 3.2 km/h
148 31-12-2020 12:15:00 4.1 C 5.82 g/m*3 4.1 C 1.6 km/h
149 31-12-2020 12:20:00 4.2 C 5.86 g/m*3 4.2 C 4.8 km/h
150 31-12-2020 12:25:00 4.1 C 5.82 g/m*3 4.1 C 0 km/h
Sensor: Nr:Datum:Temp:Abs-Feuchte:Windchill:Wind:
Aussen-T/F 151 31-12-2020 12:30:00 4.1 C 5.82 g/m*3 4.1 C 3.2 km/h
152 31-12-2020 12:35:00 4.1 C 5.76 g/m*3 4.1 C 1.6 km/h
153 31-12-2020 12:40:00 4.1 C 5.76 g/m*3 4.1 C 1.6 km/h
154 31-12-2020 12:45:00 4.1 C 5.76 g/m*3 4.1 C 3.2 km/h
155 31-12-2020 12:50:00 4 C 5.72 g/m*3 1.93 C 8.1 km/h
156 31-12-2020 12:55:00 3.9 C 5.68 g/m*3 1.82 C 8.1 km/h
157 31-12-2020 13:00:00 3.8 C 5.71 g/m*3 3.8 C 3.2 km/h
158 31-12-2020 13:05:00 3.8 C 5.71 g/m*3 3.8 C 3.2 km/h
159 31-12-2020 13:10:00 3.8 C 5.71 g/m*3 3.8 C 1.6 km/h
160 31-12-2020 13:15:00 3.8 C 5.71 g/m*3 3.8 C 0 km/h
161 31-12-2020 13:20:00 3.8 C 5.77 g/m*3 3.8 C 4.8 km/h
162 31-12-2020 13:25:00 3.8 C 5.77 g/m*3 3.8 C 0 km/h
163 31-12-2020 13:30:00 3.8 C 5.77 g/m*3 3.8 C 0 km/h
164 31-12-2020 13:35:00 3.8 C 5.77 g/m*3 3.8 C 0 km/h
165 31-12-2020 13:40:00 3.8 C 5.77 g/m*3 3.8 C 1.6 km/h
166 31-12-2020 13:45:00 3.8 C 5.77 g/m*3 3.8 C 0 km/h
167 31-12-2020 13:50:00 3.8 C 5.77 g/m*3 3.8 C 0 km/h
168 31-12-2020 13:55:00 3.7 C 5.73 g/m*3 3.7 C 0 km/h
169 31-12-2020 14:00:00 3.7 C 5.73 g/m*3 3.7 C 1.6 km/h
170 31-12-2020 14:05:00 3.8 C 5.77 g/m*3 3.8 C 0 km/h
171 31-12-2020 14:10:00 3.8 C 5.83 g/m*3 3.8 C 1.6 km/h
172 31-12-2020 14:15:00 3.9 C 5.87 g/m*3 3.9 C 0 km/h
173 31-12-2020 14:20:00 3.9 C 5.87 g/m*3 3.9 C 0 km/h
174 31-12-2020 14:25:00 3.9 C 5.81 g/m*3 3.9 C 0 km/h
175 31-12-2020 14:30:00 3.9 C 5.81 g/m*3 3.9 C 0 km/h
Sensor: Nr:Datum:Temp:Abs-Feuchte:Windchill:Wind:
Aussen-T/F 176 31-12-2020 14:35:00 3.9 C 5.81 g/m*3 3.9 C 0 km/h
177 31-12-2020 14:40:00 3.9 C 5.87 g/m*3 3.9 C 0 km/h
178 31-12-2020 14:45:00 3.9 C 5.87 g/m*3 3.9 C 0 km/h
179 31-12-2020 14:50:00 3.9 C 5.81 g/m*3 3.9 C 0 km/h
180 31-12-2020 14:55:00 3.8 C 5.77 g/m*3 3.8 C 3.2 km/h
181 31-12-2020 15:00:00 3.8 C 5.77 g/m*3 3.8 C 0 km/h
182 31-12-2020 15:05:00 3.8 C 5.77 g/m*3 3.8 C 0 km/h
183 31-12-2020 15:10:00 3.8 C 5.77 g/m*3 3.8 C 3.2 km/h
184 31-12-2020 15:15:00 3.8 C 5.77 g/m*3 3.8 C 1.6 km/h
185 31-12-2020 15:20:00 3.7 C 5.73 g/m*3 3.7 C 1.6 km/h
186 31-12-2020 15:25:00 3.7 C 5.73 g/m*3 3.7 C 0 km/h
187 31-12-2020 15:30:00 3.6 C 5.69 g/m*3 3.6 C 1.6 km/h
188 31-12-2020 15:35:00 3.6 C 5.76 g/m*3 3.6 C 0 km/h
189 31-12-2020 15:40:00 3.4 C 5.62 g/m*3 3.4 C 0 km/h
190 31-12-2020 15:45:00 3.4 C 5.68 g/m*3 3.4 C 0 km/h
191 31-12-2020 15:50:00 3.3 C 5.64 g/m*3 3.3 C 0 km/h
192 31-12-2020 15:55:00 3.2 C 5.6 g/m*3 3.2 C 0 km/h
193 31-12-2020 16:00:00 3.2 C 5.6 g/m*3 3.2 C 0 km/h
194 31-12-2020 16:05:00 3.2 C 5.6 g/m*3 3.2 C 0 km/h
195 31-12-2020 16:10:00 3.2 C 5.6 g/m*3 3.2 C 0 km/h
196 31-12-2020 16:15:00 3.1 C 5.57 g/m*3 3.1 C 0 km/h
197 31-12-2020 16:20:00 3.1 C 5.57 g/m*3 3.1 C 1.6 km/h
198 31-12-2020 16:25:00 3 C 5.53 g/m*3 3 C 0 km/h
199 31-12-2020 16:30:00 2.9 C 5.55 g/m*3 2.9 C 0 km/h
200 31-12-2020 16:35:00 2.9 C 5.55 g/m*3 2.9 C 0 km/h
Sensor: Nr:Datum:Temp:Abs-Feuchte:Windchill:Wind:
Aussen-T/F 201 31-12-2020 16:40:00 2.9 C 5.55 g/m*3 2.9 C 0 km/h
202 31-12-2020 16:45:00 2.9 C 5.55 g/m*3 2.9 C 1.6 km/h
203 31-12-2020 16:50:00 2.8 C 5.51 g/m*3 2.8 C 0 km/h
204 31-12-2020 16:55:00 2.8 C 5.51 g/m*3 2.8 C 0 km/h
205 31-12-2020 17:00:00 2.8 C 5.51 g/m*3 2.8 C 1.6 km/h
206 31-12-2020 17:05:00 2.8 C 5.51 g/m*3 2.8 C 0 km/h
207 31-12-2020 17:10:00 2.8 C 5.51 g/m*3 2.8 C 0 km/h
208 31-12-2020 17:15:00 2.8 C 5.57 g/m*3 2.8 C 0 km/h
209 31-12-2020 17:20:00 2.7 C 5.48 g/m*3 2.7 C 0 km/h
210 31-12-2020 17:25:00 2.7 C 5.48 g/m*3 2.7 C 0 km/h
211 31-12-2020 17:30:00 2.7 C 5.48 g/m*3 2.7 C 0 km/h
212 31-12-2020 17:35:00 2.7 C 5.54 g/m*3 2.7 C 0 km/h
213 31-12-2020 17:40:00 2.7 C 5.54 g/m*3 2.7 C 0 km/h
214 31-12-2020 17:45:00 2.7 C 5.54 g/m*3 2.7 C 0 km/h
215 31-12-2020 17:50:00 2.7 C 5.54 g/m*3 2.7 C 0 km/h
216 31-12-2020 17:55:00 2.7 C 5.54 g/m*3 2.7 C 0 km/h
217 31-12-2020 18:00:00 2.7 C 5.54 g/m*3 2.7 C 0 km/h
218 31-12-2020 18:05:00 2.7 C 5.54 g/m*3 2.7 C 0 km/h
219 31-12-2020 18:10:00 2.7 C 5.54 g/m*3 2.7 C 0 km/h
220 31-12-2020 18:15:00 2.7 C 5.54 g/m*3 2.7 C 0 km/h
221 31-12-2020 18:20:00 2.7 C 5.54 g/m*3 2.7 C 0 km/h
222 31-12-2020 18:25:00 2.7 C 5.54 g/m*3 2.7 C 0 km/h
223 31-12-2020 18:30:00 2.7 C 5.54 g/m*3 2.7 C 0 km/h
224 31-12-2020 18:35:00 2.7 C 5.54 g/m*3 2.7 C 0 km/h
225 31-12-2020 18:40:00 2.7 C 5.54 g/m*3 2.7 C 0 km/h
Sensor: Nr:Datum:Temp:Abs-Feuchte:Windchill:Wind:
Aussen-T/F 226 31-12-2020 18:45:00 2.8 C 5.57 g/m*3 2.8 C 0 km/h
227 31-12-2020 18:50:00 2.8 C 5.57 g/m*3 2.8 C 0 km/h
228 31-12-2020 18:55:00 2.7 C 5.54 g/m*3 2.7 C 0 km/h
229 31-12-2020 19:00:00 2.7 C 5.54 g/m*3 2.7 C 0 km/h
230 31-12-2020 19:05:00 2.7 C 5.54 g/m*3 2.7 C 0 km/h
231 31-12-2020 19:10:00 2.7 C 5.54 g/m*3 2.7 C 0 km/h
232 31-12-2020 19:15:00 2.7 C 5.54 g/m*3 2.7 C 0 km/h
233 31-12-2020 19:20:00 2.7 C 5.54 g/m*3 2.7 C 0 km/h
234 31-12-2020 19:25:00 2.7 C 5.54 g/m*3 2.7 C 0 km/h
235 31-12-2020 19:30:00 2.7 C 5.54 g/m*3 2.7 C 0 km/h
236 31-12-2020 19:35:00 2.6 C 5.5 g/m*3 2.6 C 1.6 km/h
237 31-12-2020 19:40:00 2.6 C 5.5 g/m*3 2.6 C 1.6 km/h
238 31-12-2020 19:45:00 2.5 C 5.46 g/m*3 2.5 C 0 km/h
239 31-12-2020 19:50:00 2.5 C 5.46 g/m*3 2.5 C 0 km/h
240 31-12-2020 19:55:00 2.4 C 5.42 g/m*3 2.4 C 0 km/h
241 31-12-2020 20:00:00 2.4 C 5.42 g/m*3 2.4 C 0 km/h
242 31-12-2020 20:05:00 2.4 C 5.42 g/m*3 2.4 C 0 km/h
243 31-12-2020 20:10:00 2.4 C 5.42 g/m*3 2.4 C 0 km/h
244 31-12-2020 20:15:00 2.4 C 5.42 g/m*3 2.4 C 0 km/h
245 31-12-2020 20:20:00 2.4 C 5.42 g/m*3 2.4 C 0 km/h
246 31-12-2020 20:25:00 2.4 C 5.42 g/m*3 2.4 C 0 km/h
247 31-12-2020 20:30:00 2.4 C 5.42 g/m*3 2.4 C 0 km/h
248 31-12-2020 20:35:00 2.4 C 5.42 g/m*3 2.4 C 0 km/h
249 31-12-2020 20:40:00 2.4 C 5.42 g/m*3 2.4 C 0 km/h
250 31-12-2020 20:45:00 2.4 C 5.42 g/m*3 2.4 C 0 km/h
Sensor: Nr:Datum:Temp:Abs-Feuchte:Windchill:Wind:
Aussen-T/F 251 31-12-2020 20:50:00 2.3 C 5.39 g/m*3 2.3 C 0 km/h
252 31-12-2020 20:55:00 2.3 C 5.39 g/m*3 2.3 C 0 km/h
253 31-12-2020 21:00:00 2.3 C 5.39 g/m*3 2.3 C 0 km/h
254 31-12-2020 21:05:00 2.3 C 5.39 g/m*3 2.3 C 0 km/h
255 31-12-2020 21:10:00 2.3 C 5.39 g/m*3 2.3 C 0 km/h
256 31-12-2020 21:15:00 2.2 C 5.35 g/m*3 2.2 C 0 km/h
257 31-12-2020 21:20:00 2.2 C 5.41 g/m*3 2.2 C 0 km/h
258 31-12-2020 21:25:00 2.2 C 5.41 g/m*3 2.2 C 0 km/h
259 31-12-2020 21:30:00 2.2 C 5.41 g/m*3 2.2 C 0 km/h
260 31-12-2020 21:35:00 2.2 C 5.41 g/m*3 2.2 C 0 km/h
261 31-12-2020 21:40:00 2.2 C 5.41 g/m*3 2.2 C 0 km/h
262 31-12-2020 21:45:00 2.2 C 5.41 g/m*3 2.2 C 0 km/h
263 31-12-2020 21:50:00 2.2 C 5.41 g/m*3 2.2 C 0 km/h
264 31-12-2020 21:55:00 2.2 C 5.41 g/m*3 2.2 C 0 km/h
265 31-12-2020 22:00:00 2.2 C 5.41 g/m*3 2.2 C 0 km/h
266 31-12-2020 22:05:00 2.2 C 5.41 g/m*3 2.2 C 0 km/h
267 31-12-2020 22:10:00 2.2 C 5.41 g/m*3 2.2 C 0 km/h
268 31-12-2020 22:15:00 2.2 C 5.41 g/m*3 2.2 C 0 km/h
269 31-12-2020 22:20:00 2.3 C 5.44 g/m*3 2.3 C 0 km/h
270 31-12-2020 22:25:00 2.2 C 5.41 g/m*3 2.2 C 0 km/h
271 31-12-2020 22:30:00 2.3 C 5.44 g/m*3 2.3 C 0 km/h
272 31-12-2020 22:35:00 2.2 C 5.41 g/m*3 2.2 C 0 km/h
273 31-12-2020 22:40:00 2.2 C 5.41 g/m*3 2.2 C 0 km/h
274 31-12-2020 22:45:00 2.1 C 5.31 g/m*3 2.1 C 0 km/h
275 31-12-2020 22:50:00 1.9 C 5.24 g/m*3 1.9 C 0 km/h
Sensor: Nr:Datum:Temp:Abs-Feuchte:Windchill:Wind:
Aussen-T/F 276 31-12-2020 22:55:00 1.8 C 5.21 g/m*3 1.8 C 0 km/h
277 31-12-2020 23:00:00 1.6 C 5.14 g/m*3 1.6 C 0 km/h
278 31-12-2020 23:05:00 1.5 C 5.1 g/m*3 1.5 C 0 km/h
279 31-12-2020 23:10:00 1.4 C 5.07 g/m*3 1.4 C 0 km/h
280 31-12-2020 23:15:00 1.3 C 5.03 g/m*3 1.3 C 0 km/h
281 31-12-2020 23:20:00 1.3 C 5.03 g/m*3 1.3 C 0 km/h
282 31-12-2020 23:25:00 1.2 C 5 g/m*3 1.2 C 0 km/h
283 31-12-2020 23:30:00 1.2 C 5 g/m*3 1.2 C 0 km/h
284 31-12-2020 23:35:00 1.2 C 5 g/m*3 1.2 C 0 km/h
285 31-12-2020 23:40:00 1.2 C 5 g/m*3 1.2 C 0 km/h
286 31-12-2020 23:45:00 1.1 C 4.96 g/m*3 1.1 C 0 km/h
287 31-12-2020 23:50:00 1.1 C 4.96 g/m*3 1.1 C 0 km/h
288 31-12-2020 23:55:00 1.1 C 4.96 g/m*3 1.1 C 0 km/h
289 01-01-2021 00:00:00 1.1 C 4.96 g/m*3 1.1 C 0 km/h
290 01-01-2021 00:05:00 1.1 C 4.96 g/m*3 1.1 C 0 km/h
291 01-01-2021 00:10:00 1.1 C 5.02 g/m*3 1.1 C 0 km/h
292 01-01-2021 00:15:00 1.1 C 5.02 g/m*3 1.1 C 0 km/h
293 01-01-2021 00:20:00 1.1 C 5.02 g/m*3 1.1 C 0 km/h
294 01-01-2021 00:25:00 1.1 C 5.02 g/m*3 1.1 C 0 km/h
295 01-01-2021 00:30:00 1.1 C 5.02 g/m*3 1.1 C 0 km/h
296 01-01-2021 00:35:00 1.1 C 5.02 g/m*3 1.1 C 0 km/h
297 01-01-2021 00:40:00 1.1 C 5.02 g/m*3 1.1 C 0 km/h
298 01-01-2021 00:45:00 1.1 C 5.02 g/m*3 1.1 C 0 km/h
299 01-01-2021 00:50:00 1.1 C 5.02 g/m*3 1.1 C 0 km/h
300 01-01-2021 00:55:00 1.1 C 5.02 g/m*3 1.1 C 0 km/h
Sensor: Nr:Datum:Temp:Abs-Feuchte:Windchill:Wind:
Aussen-T/F 301 01-01-2021 01:00:00 1.1 C 5.02 g/m*3 1.1 C 0 km/h
302 01-01-2021 01:05:00 1.1 C 5.02 g/m*3 1.1 C 0 km/h
303 01-01-2021 01:10:00 1.1 C 5.02 g/m*3 1.1 C 0 km/h
304 01-01-2021 01:15:00 1.1 C 5.02 g/m*3 1.1 C 0 km/h
305 01-01-2021 01:20:00 1.2 C 5.05 g/m*3 1.2 C 0 km/h
306 01-01-2021 01:25:00 1.2 C 5.05 g/m*3 1.2 C 0 km/h
307 01-01-2021 01:30:00 1.2 C 5.05 g/m*3 1.2 C 0 km/h
308 01-01-2021 01:35:00 1.2 C 5.05 g/m*3 1.2 C 0 km/h
309 01-01-2021 01:40:00 1.2 C 5.05 g/m*3 1.2 C 0 km/h
310 01-01-2021 01:45:00 1.2 C 5.05 g/m*3 1.2 C 0 km/h
311 01-01-2021 01:50:00 1.2 C 5.05 g/m*3 1.2 C 0 km/h
312 01-01-2021 01:55:00 1.2 C 5.05 g/m*3 1.2 C 0 km/h
313 01-01-2021 02:00:00 1.3 C 5.09 g/m*3 1.3 C 0 km/h
314 01-01-2021 02:05:00 1.3 C 5.09 g/m*3 1.3 C 0 km/h
315 01-01-2021 02:10:00 1.3 C 5.09 g/m*3 1.3 C 0 km/h
316 01-01-2021 02:15:00 1.3 C 5.09 g/m*3 1.3 C 0 km/h
317 01-01-2021 02:20:00 1.4 C 5.12 g/m*3 1.4 C 0 km/h
318 01-01-2021 02:25:00 1.4 C 5.12 g/m*3 1.4 C 0 km/h
319 01-01-2021 02:30:00 1.4 C 5.12 g/m*3 1.4 C 0 km/h
320 01-01-2021 02:35:00 1.4 C 5.12 g/m*3 1.4 C 0 km/h
321 01-01-2021 02:40:00 1.5 C 5.16 g/m*3 1.5 C 0 km/h
322 01-01-2021 02:45:00 1.6 C 5.19 g/m*3 1.6 C 0 km/h
323 01-01-2021 02:50:00 1.6 C 5.19 g/m*3 1.6 C 0 km/h
324 01-01-2021 02:55:00 1.6 C 5.19 g/m*3 1.6 C 0 km/h
325 01-01-2021 03:00:00 1.6 C 5.19 g/m*3 1.6 C 0 km/h
Sensor: Nr:Datum:Temp:Abs-Feuchte:Windchill:Wind:
Aussen-T/F 326 01-01-2021 03:05:00 1.6 C 5.19 g/m*3 1.6 C 1.6 km/h
327 01-01-2021 03:10:00 1.7 C 5.23 g/m*3 1.7 C 0 km/h
328 01-01-2021 03:15:00 1.7 C 5.23 g/m*3 1.7 C 0 km/h
329 01-01-2021 03:20:00 1.7 C 5.23 g/m*3 1.7 C 0 km/h
330 01-01-2021 03:25:00 1.7 C 5.23 g/m*3 1.7 C 0 km/h
331 01-01-2021 03:30:00 1.7 C 5.23 g/m*3 1.7 C 0 km/h
332 01-01-2021 03:35:00 1.8 C 5.26 g/m*3 1.8 C 0 km/h
333 01-01-2021 03:40:00 1.8 C 5.26 g/m*3 1.8 C 0 km/h
334 01-01-2021 03:45:00 1.8 C 5.32 g/m*3 1.8 C 0 km/h
335 01-01-2021 03:50:00 1.8 C 5.32 g/m*3 1.8 C 0 km/h
336 01-01-2021 03:55:00 1.8 C 5.32 g/m*3 1.8 C 0 km/h
337 01-01-2021 04:00:00 1.8 C 5.32 g/m*3 1.8 C 0 km/h
338 01-01-2021 04:05:00 1.8 C 5.32 g/m*3 1.8 C 0 km/h
339 01-01-2021 04:10:00 1.9 C 5.35 g/m*3 1.9 C 0 km/h
340 01-01-2021 04:15:00 1.9 C 5.35 g/m*3 1.9 C 0 km/h
341 01-01-2021 04:20:00 1.9 C 5.35 g/m*3 1.9 C 0 km/h
342 01-01-2021 04:25:00 1.9 C 5.35 g/m*3 1.9 C 0 km/h
343 01-01-2021 04:30:00 1.9 C 5.35 g/m*3 1.9 C 4.8 km/h
344 01-01-2021 04:35:00 1.9 C 5.35 g/m*3 1.9 C 4.8 km/h
345 01-01-2021 04:40:00 1.9 C 5.35 g/m*3 1.9 C 3.2 km/h
346 01-01-2021 04:45:00 1.9 C 5.35 g/m*3 1.9 C 3.2 km/h
347 01-01-2021 04:50:00 1.9 C 5.35 g/m*3 1.9 C 0 km/h
348 01-01-2021 04:55:00 1.9 C 5.35 g/m*3 1.9 C 1.6 km/h
349 01-01-2021 05:00:00 2 C 5.39 g/m*3 2 C 0 km/h
350 01-01-2021 05:05:00 2 C 5.39 g/m*3 2 C 0 km/h
Sensor: Nr:Datum:Temp:Abs-Feuchte:Windchill:Wind:
Aussen-T/F 351 01-01-2021 05:10:00 2 C 5.39 g/m*3 2 C 4.8 km/h
352 01-01-2021 05:15:00 2 C 5.39 g/m*3 2 C 0 km/h
353 01-01-2021 05:20:00 2 C 5.39 g/m*3 2 C 1.6 km/h
354 01-01-2021 05:25:00 2.1 C 5.43 g/m*3 2.1 C 0 km/h
355 01-01-2021 05:30:00 2.1 C 5.43 g/m*3 2.1 C 0 km/h
356 01-01-2021 05:35:00 2.1 C 5.43 g/m*3 2.1 C 0 km/h
357 01-01-2021 05:40:00 2.1 C 5.43 g/m*3 2.1 C 0 km/h
358 01-01-2021 05:45:00 2.1 C 5.43 g/m*3 2.1 C 0 km/h
359 01-01-2021 05:50:00 2.1 C 5.43 g/m*3 2.1 C 0 km/h
360 01-01-2021 05:55:00 2.1 C 5.43 g/m*3 2.1 C 0 km/h
361 01-01-2021 06:00:00 2.2 C 5.46 g/m*3 2.2 C 0 km/h
362 01-01-2021 06:05:00 2.2 C 5.46 g/m*3 2.2 C 0 km/h
363 01-01-2021 06:10:00 2.2 C 5.46 g/m*3 2.2 C 0 km/h
364 01-01-2021 06:15:00 2.2 C 5.46 g/m*3 2.2 C 0 km/h
365 01-01-2021 06:20:00 2.2 C 5.46 g/m*3 2.2 C 0 km/h
366 01-01-2021 06:25:00 2.2 C 5.46 g/m*3 2.2 C 0 km/h
367 01-01-2021 06:30:00 2.2 C 5.46 g/m*3 2.2 C 0 km/h
368 01-01-2021 06:35:00 2.3 C 5.5 g/m*3 2.3 C 0 km/h
369 01-01-2021 06:40:00 2.3 C 5.5 g/m*3 2.3 C 0 km/h
370 01-01-2021 06:45:00 2.3 C 5.5 g/m*3 2.3 C 0 km/h
371 01-01-2021 06:50:00 2.3 C 5.5 g/m*3 2.3 C 0 km/h
372 01-01-2021 06:55:00 2.3 C 5.5 g/m*3 2.3 C 0 km/h
373 01-01-2021 07:00:00 2.3 C 5.5 g/m*3 2.3 C 0 km/h
374 01-01-2021 07:05:00 2.3 C 5.5 g/m*3 2.3 C 0 km/h
375 01-01-2021 07:10:00 2.4 C 5.54 g/m*3 2.4 C 0 km/h
Sensor: Nr:Datum:Temp:Abs-Feuchte:Windchill:Wind:
Aussen-T/F 376 01-01-2021 07:15:00 2.4 C 5.54 g/m*3 2.4 C 0 km/h
377 01-01-2021 07:20:00 2.4 C 5.54 g/m*3 2.4 C 0 km/h
378 01-01-2021 07:25:00 2.4 C 5.54 g/m*3 2.4 C 0 km/h
379 01-01-2021 07:30:00 2.4 C 5.54 g/m*3 2.4 C 0 km/h
380 01-01-2021 07:35:00 2.5 C 5.58 g/m*3 2.5 C 0 km/h
381 01-01-2021 07:40:00 2.5 C 5.58 g/m*3 2.5 C 0 km/h
382 01-01-2021 07:45:00 2.5 C 5.58 g/m*3 2.5 C 1.6 km/h
383 01-01-2021 07:50:00 2.5 C 5.58 g/m*3 2.5 C 1.6 km/h
384 01-01-2021 07:55:00 2.5 C 5.58 g/m*3 2.5 C 0 km/h
385 01-01-2021 08:00:00 2.5 C 5.58 g/m*3 2.5 C 0 km/h
386 01-01-2021 08:05:00 2.5 C 5.58 g/m*3 2.5 C 0 km/h
387 01-01-2021 08:10:00 2.5 C 5.58 g/m*3 2.5 C 0 km/h
388 01-01-2021 08:15:00 2.5 C 5.58 g/m*3 2.5 C 0 km/h
389 01-01-2021 08:20:00 2.5 C 5.58 g/m*3 2.5 C 0 km/h
390 01-01-2021 08:25:00 2.5 C 5.58 g/m*3 2.5 C 1.6 km/h
391 01-01-2021 08:30:00 2.5 C 5.58 g/m*3 2.5 C 0 km/h
392 01-01-2021 08:35:00 2.5 C 5.58 g/m*3 2.5 C 0 km/h
393 01-01-2021 08:40:00 2.5 C 5.58 g/m*3 2.5 C 1.6 km/h
394 01-01-2021 08:45:00 2.5 C 5.58 g/m*3 2.5 C 0 km/h
395 01-01-2021 08:50:00 2.5 C 5.58 g/m*3 2.5 C 0 km/h
396 01-01-2021 08:55:00 2.5 C 5.58 g/m*3 2.5 C 0 km/h
397 01-01-2021 09:00:00 2.5 C 5.58 g/m*3 2.5 C 0 km/h
398 01-01-2021 09:05:00 2.5 C 5.58 g/m*3 2.5 C 0 km/h
399 01-01-2021 09:10:00 2.5 C 5.58 g/m*3 2.5 C 0 km/h
400 01-01-2021 09:15:00 2.5 C 5.58 g/m*3 2.5 C 0 km/h
Sensor: Nr:Datum:Temp:Abs-Feuchte:Windchill:Wind:
Aussen-T/F 401 01-01-2021 09:20:00 2.5 C 5.58 g/m*3 2.5 C 0 km/h
402 01-01-2021 09:25:00 2.5 C 5.58 g/m*3 2.5 C 0 km/h
403 01-01-2021 09:30:00 2.6 C 5.61 g/m*3 2.6 C 0 km/h
404 01-01-2021 09:35:00 2.6 C 5.61 g/m*3 2.6 C 0 km/h
405 01-01-2021 09:40:00 2.6 C 5.61 g/m*3 2.6 C 0 km/h
406 01-01-2021 09:45:00 2.6 C 5.61 g/m*3 2.6 C 0 km/h
407 01-01-2021 09:50:00 2.6 C 5.61 g/m*3 2.6 C 0 km/h
408 01-01-2021 09:55:00 2.6 C 5.61 g/m*3 2.6 C 0 km/h
409 01-01-2021 10:00:00 2.6 C 5.61 g/m*3 2.6 C 0 km/h
410 01-01-2021 10:05:00 2.7 C 5.65 g/m*3 2.7 C 0 km/h
411 01-01-2021 10:10:00 2.7 C 5.65 g/m*3 2.7 C 0 km/h
412 01-01-2021 10:15:00 2.7 C 5.65 g/m*3 2.7 C 0 km/h
413 01-01-2021 10:20:00 2.7 C 5.65 g/m*3 2.7 C 0 km/h
414 01-01-2021 10:25:00 2.7 C 5.65 g/m*3 2.7 C 0 km/h
415 01-01-2021 10:30:00 2.7 C 5.65 g/m*3 2.7 C 0 km/h
416 01-01-2021 10:35:00 2.8 C 5.69 g/m*3 2.8 C 0 km/h
417 01-01-2021 10:40:00 2.8 C 5.69 g/m*3 2.8 C 0 km/h
418 01-01-2021 10:45:00 2.8 C 5.69 g/m*3 2.8 C 0 km/h
419 01-01-2021 10:50:00 2.8 C 5.69 g/m*3 2.8 C 0 km/h
420 01-01-2021 10:55:00 2.8 C 5.69 g/m*3 2.8 C 0 km/h
421 01-01-2021 11:00:00 2.9 C 5.73 g/m*3 2.9 C 1.6 km/h
422 01-01-2021 11:05:00 2.9 C 5.73 g/m*3 2.9 C 0 km/h
423 01-01-2021 11:10:00 3 C 5.77 g/m*3 3 C 0 km/h
424 01-01-2021 11:15:00 3 C 5.77 g/m*3 3 C 0 km/h
425 01-01-2021 11:20:00 3.1 C 5.81 g/m*3 3.1 C 0 km/h
Sensor: Nr:Datum:Temp:Abs-Feuchte:Windchill:Wind:
Aussen-T/F 426 01-01-2021 11:25:00 3.1 C 5.81 g/m*3 3.1 C 1.6 km/h
427 01-01-2021 11:30:00 3.1 C 5.81 g/m*3 3.1 C 0 km/h
428 01-01-2021 11:35:00 3 C 5.77 g/m*3 3 C 3.2 km/h
429 01-01-2021 11:40:00 3 C 5.77 g/m*3 3 C 4.8 km/h
430 01-01-2021 11:45:00 3 C 5.77 g/m*3 1.28 C 6.4 km/h
431 01-01-2021 11:50:00 2.9 C 5.73 g/m*3 1.17 C 6.4 km/h
432 01-01-2021 11:55:00 2.9 C 5.73 g/m*3 1.17 C 6.4 km/h
433 01-01-2021 12:00:00 2.9 C 5.73 g/m*3 2.9 C 0 km/h
434 01-01-2021 12:05:00 2.9 C 5.73 g/m*3 2.9 C 4.8 km/h
435 01-01-2021 12:10:00 2.9 C 5.73 g/m*3 1.17 C 6.4 km/h
436 01-01-2021 12:15:00 2.9 C 5.73 g/m*3 2.9 C 3.2 km/h
437 01-01-2021 12:20:00 2.9 C 5.73 g/m*3 2.9 C 0 km/h
438 01-01-2021 12:25:00 2.9 C 5.73 g/m*3 2.9 C 0 km/h
439 01-01-2021 12:30:00 3 C 5.77 g/m*3 3 C 0 km/h
440 01-01-2021 12:35:00 3 C 5.77 g/m*3 3 C 3.2 km/h
441 01-01-2021 12:40:00 3 C 5.77 g/m*3 3 C 0 km/h
442 01-01-2021 12:45:00 3 C 5.77 g/m*3 3 C 0 km/h
443 01-01-2021 12:50:00 3 C 5.77 g/m*3 3 C 3.2 km/h
444 01-01-2021 12:55:00 3 C 5.77 g/m*3 3 C 3.2 km/h
445 01-01-2021 13:00:00 3 C 5.77 g/m*3 3 C 3.2 km/h
446 01-01-2021 13:05:00 3 C 5.71 g/m*3 1.28 C 6.4 km/h
447 01-01-2021 13:10:00 3 C 5.71 g/m*3 3 C 0 km/h
448 01-01-2021 13:15:00 3 C 5.71 g/m*3 3 C 3.2 km/h
449 01-01-2021 13:20:00 3 C 5.71 g/m*3 3 C 0 km/h
450 01-01-2021 13:25:00 3.1 C 5.75 g/m*3 3.1 C 0 km/h
Sensor: Nr:Datum:Temp:Abs-Feuchte:Windchill:Wind:
Aussen-T/F 451 01-01-2021 13:30:00 3.1 C 5.75 g/m*3 3.1 C 0 km/h
452 01-01-2021 13:35:00 3.1 C 5.75 g/m*3 3.1 C 4.8 km/h
453 01-01-2021 13:40:00 3 C 5.71 g/m*3 3 C 3.2 km/h
454 01-01-2021 13:45:00 3 C 5.71 g/m*3 3 C 1.6 km/h
455 01-01-2021 13:50:00 3 C 5.71 g/m*3 3 C 0 km/h
456 01-01-2021 13:55:00 3 C 5.71 g/m*3 3 C 1.6 km/h
457 01-01-2021 14:00:00 3 C 5.71 g/m*3 3 C 0 km/h
458 01-01-2021 14:05:00 3 C 5.71 g/m*3 3 C 0 km/h
459 01-01-2021 14:10:00 3 C 5.71 g/m*3 3 C 0 km/h
460 01-01-2021 14:15:00 3.1 C 5.75 g/m*3 3.1 C 0 km/h
461 01-01-2021 14:20:00 3.1 C 5.75 g/m*3 3.1 C 4.8 km/h
462 01-01-2021 14:25:00 3.1 C 5.75 g/m*3 3.1 C 0 km/h
463 01-01-2021 14:30:00 3.1 C 5.75 g/m*3 3.1 C 0 km/h
464 01-01-2021 14:35:00 3.1 C 5.75 g/m*3 3.1 C 1.6 km/h
465 01-01-2021 14:40:00 3.1 C 5.75 g/m*3 3.1 C 0 km/h
466 01-01-2021 14:45:00 3.1 C 5.75 g/m*3 3.1 C 0 km/h
467 01-01-2021 14:50:00 3.1 C 5.75 g/m*3 3.1 C 0 km/h
468 01-01-2021 14:55:00 3.1 C 5.75 g/m*3 3.1 C 0 km/h
469 01-01-2021 15:00:00 3.1 C 5.75 g/m*3 3.1 C 0 km/h
470 01-01-2021 15:05:00 3.1 C 5.75 g/m*3 3.1 C 0 km/h
471 01-01-2021 15:10:00 3.1 C 5.75 g/m*3 3.1 C 0 km/h
472 01-01-2021 15:15:00 3.1 C 5.75 g/m*3 3.1 C 0 km/h
473 01-01-2021 15:20:00 3.2 C 5.79 g/m*3 3.2 C 1.6 km/h
474 01-01-2021 15:25:00 3.2 C 5.79 g/m*3 3.2 C 3.2 km/h
475 01-01-2021 15:30:00 3.2 C 5.79 g/m*3 3.2 C 3.2 km/h
Sensor: Nr:Datum:Temp:Abs-Feuchte:Windchill:Wind:
Aussen-T/F 476 01-01-2021 15:35:00 3.2 C 5.79 g/m*3 3.2 C 3.2 km/h
477 01-01-2021 15:40:00 3.1 C 5.75 g/m*3 3.1 C 3.2 km/h
478 01-01-2021 15:45:00 3.1 C 5.75 g/m*3 3.1 C 0 km/h
479 01-01-2021 15:50:00 3.1 C 5.75 g/m*3 3.1 C 0 km/h
480 01-01-2021 15:55:00 3.1 C 5.75 g/m*3 3.1 C 0 km/h
481 01-01-2021 16:00:00 3.1 C 5.75 g/m*3 3.1 C 0 km/h
482 01-01-2021 16:05:00 3 C 5.71 g/m*3 3 C 3.2 km/h
483 01-01-2021 16:10:00 3 C 5.71 g/m*3 3 C 3.2 km/h
484 01-01-2021 16:15:00 3 C 5.71 g/m*3 3 C 3.2 km/h
485 01-01-2021 16:20:00 2.9 C 5.67 g/m*3 2.9 C 0 km/h
486 01-01-2021 16:25:00 2.9 C 5.67 g/m*3 2.9 C 0 km/h
487 01-01-2021 16:30:00 2.9 C 5.67 g/m*3 2.9 C 0 km/h
488 01-01-2021 16:35:00 2.8 C 5.63 g/m*3 2.8 C 0 km/h
489 01-01-2021 16:40:00 2.8 C 5.63 g/m*3 2.8 C 0 km/h
490 01-01-2021 16:45:00 2.8 C 5.63 g/m*3 2.8 C 0 km/h
491 01-01-2021 16:50:00 2.8 C 5.63 g/m*3 2.8 C 0 km/h
492 01-01-2021 16:55:00 2.8 C 5.63 g/m*3 2.8 C 0 km/h
493 01-01-2021 17:00:00 2.7 C 5.59 g/m*3 2.7 C 0 km/h
494 01-01-2021 17:05:00 2.7 C 5.59 g/m*3 2.7 C 0 km/h
495 01-01-2021 17:10:00 2.7 C 5.59 g/m*3 2.7 C 0 km/h
496 01-01-2021 17:15:00 2.7 C 5.59 g/m*3 2.7 C 0 km/h
497 01-01-2021 17:20:00 2.7 C 5.59 g/m*3 2.7 C 0 km/h
498 01-01-2021 17:25:00 2.7 C 5.59 g/m*3 2.7 C 0 km/h
499 01-01-2021 17:30:00 2.7 C 5.59 g/m*3 2.7 C 0 km/h
500 01-01-2021 17:35:00 2.7 C 5.59 g/m*3 2.7 C 0 km/h
Sensor: Nr:Datum:Temp:Abs-Feuchte:Windchill:Wind:
Aussen-T/F 501 01-01-2021 17:40:00 2.7 C 5.59 g/m*3 2.7 C 0 km/h
502 01-01-2021 17:45:00 2.7 C 5.59 g/m*3 2.7 C 0 km/h
503 01-01-2021 17:50:00 2.6 C 5.56 g/m*3 2.6 C 0 km/h
504 01-01-2021 17:55:00 2.6 C 5.56 g/m*3 2.6 C 0 km/h
505 01-01-2021 18:00:00 2.6 C 5.56 g/m*3 2.6 C 0 km/h
506 01-01-2021 18:05:00 2.6 C 5.56 g/m*3 2.6 C 0 km/h
507 01-01-2021 18:10:00 2.6 C 5.56 g/m*3 2.6 C 0 km/h
508 01-01-2021 18:15:00 2.6 C 5.56 g/m*3 2.6 C 0 km/h
509 01-01-2021 18:20:00 2.6 C 5.56 g/m*3 2.6 C 0 km/h
510 01-01-2021 18:25:00 2.6 C 5.56 g/m*3 2.6 C 0 km/h
511 01-01-2021 18:30:00 2.5 C 5.52 g/m*3 2.5 C 0 km/h
512 01-01-2021 18:35:00 2.5 C 5.52 g/m*3 2.5 C 0 km/h
513 01-01-2021 18:40:00 2.5 C 5.52 g/m*3 2.5 C 0 km/h
514 01-01-2021 18:45:00 2.4 C 5.48 g/m*3 2.4 C 0 km/h
515 01-01-2021 18:50:00 2.4 C 5.48 g/m*3 2.4 C 0 km/h
516 01-01-2021 18:55:00 2.4 C 5.48 g/m*3 2.4 C 0 km/h
517 01-01-2021 19:00:00 2.3 C 5.44 g/m*3 2.3 C 0 km/h
518 01-01-2021 19:05:00 2.2 C 5.41 g/m*3 2.2 C 0 km/h
519 01-01-2021 19:10:00 2.1 C 5.37 g/m*3 2.1 C 0 km/h
520 01-01-2021 19:15:00 2 C 5.33 g/m*3 2 C 0 km/h
521 01-01-2021 19:20:00 1.9 C 5.3 g/m*3 1.9 C 0 km/h
522 01-01-2021 19:25:00 1.9 C 5.3 g/m*3 1.9 C 0 km/h
523 01-01-2021 19:30:00 1.8 C 5.26 g/m*3 1.8 C 0 km/h
524 01-01-2021 19:35:00 1.7 C 5.23 g/m*3 1.7 C 0 km/h
525 01-01-2021 19:40:00 1.6 C 5.19 g/m*3 1.6 C 0 km/h
Sensor: Nr:Datum:Temp:Abs-Feuchte:Windchill:Wind:
Aussen-T/F 526 01-01-2021 19:45:00 1.5 C 5.16 g/m*3 1.5 C 0 km/h
527 01-01-2021 19:50:00 1.4 C 5.12 g/m*3 1.4 C 0 km/h
528 01-01-2021 19:55:00 1.3 C 5.09 g/m*3 1.3 C 0 km/h
529 01-01-2021 20:00:00 1.3 C 5.09 g/m*3 1.3 C 0 km/h
530 01-01-2021 20:05:00 1.2 C 5.05 g/m*3 1.2 C 0 km/h
531 01-01-2021 20:10:00 1.2 C 5.05 g/m*3 1.2 C 0 km/h
532 01-01-2021 20:15:00 1.3 C 5.09 g/m*3 1.3 C 0 km/h
533 01-01-2021 20:20:00 1.3 C 5.09 g/m*3 1.3 C 0 km/h
534 01-01-2021 20:25:00 1.4 C 5.12 g/m*3 1.4 C 0 km/h
535 01-01-2021 20:30:00 1.4 C 5.12 g/m*3 1.4 C 0 km/h
536 01-01-2021 20:35:00 1.4 C 5.12 g/m*3 1.4 C 0 km/h
537 01-01-2021 20:40:00 1.3 C 5.09 g/m*3 1.3 C 0 km/h
538 01-01-2021 20:45:00 1.2 C 5.05 g/m*3 1.2 C 0 km/h
539 01-01-2021 20:50:00 1.1 C 5.02 g/m*3 1.1 C 0 km/h
540 01-01-2021 20:55:00 1.1 C 5.02 g/m*3 1.1 C 0 km/h
541 01-01-2021 21:00:00 1.1 C 5.02 g/m*3 1.1 C 0 km/h
542 01-01-2021 21:05:00 1.1 C 5.02 g/m*3 1.1 C 0 km/h
543 01-01-2021 21:10:00 1.1 C 5.02 g/m*3 1.1 C 0 km/h
544 01-01-2021 21:15:00 1 C 4.98 g/m*3 1 C 0 km/h
545 01-01-2021 21:20:00 0.9 C 4.95 g/m*3 0.9 C 0 km/h
546 01-01-2021 21:25:00 0.8 C 4.91 g/m*3 0.8 C 0 km/h
547 01-01-2021 21:30:00 0.7 C 4.88 g/m*3 0.7 C 0 km/h
548 01-01-2021 21:35:00 0.7 C 4.88 g/m*3 0.7 C 0 km/h
549 01-01-2021 21:40:00 0.6 C 4.85 g/m*3 0.6 C 0 km/h
550 01-01-2021 21:45:00 0.6 C 4.85 g/m*3 0.6 C 0 km/h
Sensor: Nr:Datum:Temp:Abs-Feuchte:Windchill:Wind:
Aussen-T/F 551 01-01-2021 21:50:00 0.6 C 4.85 g/m*3 0.6 C 0 km/h
552 01-01-2021 21:55:00 0.4 C 4.78 g/m*3 0.4 C 0 km/h
553 01-01-2021 22:00:00 0.4 C 4.78 g/m*3 0.4 C 0 km/h
554 01-01-2021 22:05:00 0.4 C 4.78 g/m*3 0.4 C 0 km/h
555 01-01-2021 22:10:00 0.4 C 4.78 g/m*3 0.4 C 0 km/h
556 01-01-2021 22:15:00 0.4 C 4.78 g/m*3 0.4 C 0 km/h
557 01-01-2021 22:20:00 0.5 C 4.81 g/m*3 0.5 C 0 km/h
558 01-01-2021 22:25:00 0.6 C 4.9 g/m*3 0.6 C 0 km/h
559 01-01-2021 22:30:00 0.7 C 4.93 g/m*3 0.7 C 0 km/h
560 01-01-2021 22:35:00 0.7 C 4.93 g/m*3 0.7 C 0 km/h
561 01-01-2021 22:40:00 0.8 C 4.97 g/m*3 0.8 C 0 km/h
562 01-01-2021 22:45:00 0.8 C 4.97 g/m*3 0.8 C 0 km/h
563 01-01-2021 22:50:00 0.8 C 4.97 g/m*3 0.8 C 0 km/h
564 01-01-2021 22:55:00 0.8 C 4.97 g/m*3 0.8 C 0 km/h
565 01-01-2021 23:00:00 0.8 C 4.97 g/m*3 0.8 C 0 km/h
566 01-01-2021 23:05:00 0.8 C 4.97 g/m*3 0.8 C 0 km/h
567 01-01-2021 23:10:00 0.8 C 4.97 g/m*3 0.8 C 0 km/h
568 01-01-2021 23:15:00 0.8 C 4.97 g/m*3 0.8 C 0 km/h
569 01-01-2021 23:20:00 0.8 C 4.97 g/m*3 0.8 C 0 km/h
570 01-01-2021 23:25:00 0.8 C 4.97 g/m*3 0.8 C 0 km/h
571 01-01-2021 23:30:00 0.8 C 4.97 g/m*3 0.8 C 0 km/h
572 01-01-2021 23:35:00 0.8 C 4.97 g/m*3 0.8 C 0 km/h
573 01-01-2021 23:40:00 0.7 C 4.93 g/m*3 0.7 C 0 km/h
574 01-01-2021 23:45:00 0.7 C 4.93 g/m*3 0.7 C 0 km/h
575 01-01-2021 23:50:00 0.7 C 4.93 g/m*3 0.7 C 0 km/h
Sensor: Nr:Datum:Temp:Abs-Feuchte:Windchill:Wind:
Aussen-T/F 576 01-01-2021 23:55:00 0.7 C 4.93 g/m*3 0.7 C 0 km/h

Legende:
   Min
   Max


Maximal/Minimal-Werte vom 14.04.2020 - 16.05.2020

Sensor Min Max Avg
Temp
(Aussen-T/F)
-0.1 °C
15-04-2020  06:55:00
26.2 °C
17-04-2020  18:05:00
11.98 °C

Die Daten stammen von einer Davis Vantage Pro 2 Wetter-Station und werden unter Linux mit der Software wview2wettercgi und aufbereitet. Alle Angaben erfolgen ohne Gewähr für ihre Vollständigkeit oder Richtigkeit.
Kontakt: Rainer Krienke krienke@uni-koblenz.de . Meine Webseiten an der Uni Koblenz oder privat.
Version: $Revision: 0.78 $